Time;durP1;ratioP1;P1;durP2;ratioP2;P2;SDS_P1;SDS_P2;PMS_P1;PMS_P2;Temp;Humidity;BMP_temperature;BMP_pressure;BME280_temperature;BME280_humidity;BME280_pressure;Samples;Min_cycle;Max_cycle;Signal;HPM_P1;HPM_P2
2022/03/30 00:01:01;;;;;;;217.62;99.05;;;;;;;4.74;65.87;93487.81;1532952;92;21059;-48
2022/03/30 00:03:29;;;;;;;209.90;99.85;;;;;;;4.52;66.27;93483.50;1522413;92;21486;-49
2022/03/30 00:05:57;;;;;;;246.10;110.37;;;;;;;4.40;66.76;93493.22;1523102;92;21512;-48
2022/03/30 00:08:26;;;;;;;230.35;101.72;;;;;;;4.31;66.81;93482.83;1508068;94;21069;-48
2022/03/30 00:10:53;;;;;;;229.38;103.62;;;;;;;4.18;66.97;93487.52;1512551;94;21164;-47
2022/03/30 00:13:22;;;;;;;206.32;93.75;;;;;;;4.07;67.35;93483.03;1520608;92;21171;-49
2022/03/30 00:15:50;;;;;;;271.15;120.67;;;;;;;4.01;67.72;93488.25;1522927;93;21133;-49
2022/03/30 00:18:18;;;;;;;249.25;114.67;;;;;;;3.96;67.84;93488.80;1523128;93;21180;-48
2022/03/30 00:20:47;;;;;;;244.15;107.72;;;;;;;3.95;67.98;93489.22;1522323;92;21678;-49
2022/03/30 00:23:17;;;;;;;231.63;105.20;;;;;;;3.91;67.95;93492.05;1526237;92;21209;-50
2022/03/30 00:25:44;;;;;;;243.02;109.30;;;;;;;3.91;68.15;93492.05;1531990;93;21030;-48
2022/03/30 00:28:11;;;;;;;229.47;102.58;;;;;;;3.91;68.16;93485.24;1522415;92;21025;-48
2022/03/30 00:30:40;;;;;;;239.90;105.63;;;;;;;3.92;68.05;93488.16;1522111;92;21188;-48
2022/03/30 00:33:08;;;;;;;207.65;97.82;;;;;;;3.95;68.27;93480.48;1521381;93;21224;-47
2022/03/30 00:35:37;;;;;;;149.35;73.60;;;;;;;4.01;68.14;93492.91;1525891;93;21058;-48
2022/03/30 00:38:05;;;;;;;146.68;71.40;;;;;;;4.03;67.90;93487.20;1522176;92;21582;-48
2022/03/30 00:40:33;;;;;;;180.22;83.90;;;;;;;4.03;67.85;93489.19;1521797;92;21503;-50
2022/03/30 00:43:00;;;;;;;171.18;76.05;;;;;;;4.04;67.91;93481.93;1522071;92;21491;-50
2022/03/30 00:45:27;;;;;;;173.40;82.20;;;;;;;3.96;68.14;93480.64;1522421;92;21042;-48
2022/03/30 00:47:55;;;;;;;179.65;84.58;;;;;;;3.86;68.17;93472.81;1522073;92;21116;-49
2022/03/30 00:50:22;;;;;;;156.22;78.95;;;;;;;3.78;68.52;93470.89;1522204;92;21033;-48
2022/03/30 00:52:53;;;;;;;154.78;74.40;;;;;;;3.72;68.53;93468.53;1523996;92;21023;-48
2022/03/30 00:55:21;;;;;;;149.68;71.97;;;;;;;3.71;68.58;93472.45;1523369;92;21896;-49
2022/03/30 00:57:51;;;;;;;148.17;67.22;;;;;;;3.71;68.31;93474.42;1520271;92;20935;-47
2022/03/30 01:00:19;;;;;;;133.95;66.05;;;;;;;3.69;68.47;93474.10;1526087;92;21071;-48
2022/03/30 01:02:48;;;;;;;149.50;71.82;;;;;;;3.66;68.31;93467.56;1528591;92;21106;-47
2022/03/30 01:05:16;;;;;;;119.75;62.90;;;;;;;3.61;68.50;93470.83;1528832;92;21152;-48
2022/03/30 01:07:45;;;;;;;130.65;68.30;;;;;;;3.53;68.98;93480.38;1534191;92;21514;-55
2022/03/30 01:10:13;;;;;;;143.75;69.95;;;;;;;3.48;69.48;93473.95;1523325;92;21026;-48
2022/03/30 01:12:42;;;;;;;159.35;77.03;;;;;;;3.46;69.67;93476.34;1521985;92;22596;-47
2022/03/30 01:15:12;;;;;;;179.87;76.30;;;;;;;3.43;69.32;93482.66;1521366;92;22006;-47
2022/03/30 01:17:40;;;;;;;171.25;76.87;;;;;;;3.38;69.29;93480.48;1521543;93;21152;-48
2022/03/30 01:20:10;;;;;;;144.22;68.97;;;;;;;3.32;69.56;93478.11;1522496;92;21116;-47
2022/03/30 01:22:39;;;;;;;124.25;59.55;;;;;;;3.26;69.41;93473.05;1523372;92;20931;-49
2022/03/30 01:25:07;;;;;;;139.20;62.67;;;;;;;3.21;69.56;93479.77;1521854;92;21022;-48
2022/03/30 01:27:35;;;;;;;111.57;56.10;;;;;;;3.17;69.62;93476.39;1523267;93;21012;-48
2022/03/30 01:33:00;;;;;;;150.03;67.30;;;;;;;3.17;70.22;93470.19;1524542;92;21326;-48
2022/03/30 01:35:28;;;;;;;176.75;72.65;;;;;;;3.15;70.08;93471.22;1523580;92;21145;-48
2022/03/30 01:37:55;;;;;;;188.50;80.50;;;;;;;3.10;70.16;93464.96;1522302;92;21148;-49
2022/03/30 01:40:22;;;;;;;159.87;72.90;;;;;;;3.05;70.34;93454.63;1523372;92;21104;-52
2022/03/30 01:42:50;;;;;;;166.68;68.35;;;;;;;3.09;70.62;93453.93;1523138;92;21606;-48
2022/03/30 01:45:19;;;;;;;144.95;67.20;;;;;;;3.13;70.52;93455.94;1525435;92;21150;-48
2022/03/30 01:47:54;;;;;;;150.93;66.15;;;;;;;3.11;70.36;93454.26;1523280;92;21077;-51
2022/03/30 01:50:23;;;;;;;131.20;60.40;;;;;;;3.06;70.21;93449.36;1523042;92;21036;-48
2022/03/30 01:52:51;;;;;;;139.30;62.95;;;;;;;2.93;70.23;93452.63;1522379;92;21026;-47
2022/03/30 01:55:20;;;;;;;136.95;64.35;;;;;;;2.80;70.38;93457.25;1521741;92;21640;-49
2022/03/30 01:57:48;;;;;;;128.65;61.05;;;;;;;2.74;70.54;93465.75;1522238;93;21376;-48
2022/03/30 02:00:18;;;;;;;137.00;64.27;;;;;;;2.69;70.68;93462.21;1530227;92;21109;-48
2022/03/30 02:02:46;;;;;;;128.45;61.50;;;;;;;2.63;70.82;93451.69;1488262;93;21599;-48
2022/03/30 02:05:17;;;;;;;133.67;64.55;;;;;;;2.66;71.36;93463.07;1518174;92;21236;-47
2022/03/30 02:07:44;;;;;;;134.27;63.58;;;;;;;2.75;71.14;93465.34;1523160;92;21059;-48
2022/03/30 02:10:13;;;;;;;127.40;59.42;;;;;;;2.82;70.77;93459.70;1522381;92;21142;-49
2022/03/30 02:12:40;;;;;;;126.78;57.38;;;;;;;2.81;70.58;93461.48;1527248;92;21131;-48
2022/03/30 02:15:10;;;;;;;129.20;55.50;;;;;;;2.76;70.56;93460.66;1522507;93;21546;-48
2022/03/30 02:17:40;;;;;;;115.25;56.75;;;;;;;2.69;70.63;93462.95;1521474;92;21168;-48
2022/03/30 02:20:08;;;;;;;113.52;58.08;;;;;;;2.65;71.08;93453.41;1521765;93;21152;-49
2022/03/30 02:22:35;;;;;;;111.55;55.23;;;;;;;2.63;71.15;93459.83;1522248;92;21680;-48
2022/03/30 02:25:04;;;;;;;110.80;56.10;;;;;;;2.57;71.28;93461.55;1521729;92;21178;-47
2022/03/30 02:27:33;;;;;;;113.47;57.98;;;;;;;2.51;71.36;93453.77;1523005;92;21074;-49
2022/03/30 02:30:01;;;;;;;131.12;59.48;;;;;;;2.48;71.37;93457.34;1522705;93;21165;-49
2022/03/30 02:32:28;;;;;;;141.05;65.42;;;;;;;2.45;71.42;93448.09;1531272;92;21070;-48
2022/03/30 02:34:55;;;;;;;117.03;54.30;;;;;;;2.43;71.57;93445.05;1521876;92;21281;-49
2022/03/30 02:37:23;;;;;;;122.87;60.48;;;;;;;2.40;71.64;93440.48;1521482;92;21125;-48
2022/03/30 02:39:51;;;;;;;127.02;59.23;;;;;;;2.34;71.89;93440.06;1525513;92;21231;-49
2022/03/30 02:42:18;;;;;;;97.00;49.95;;;;;;;2.34;72.06;93436.73;1525191;93;21665;-49
2022/03/30 02:44:46;;;;;;;116.37;56.85;;;;;;;2.40;72.21;93430.98;1522147;92;21136;-48
2022/03/30 02:47:13;;;;;;;107.55;53.98;;;;;;;2.38;72.13;93437.43;1523084;92;22212;-49
2022/03/30 02:49:42;;;;;;;106.15;51.05;;;;;;;2.42;72.19;93438.67;1523281;93;22593;-50
2022/03/30 02:52:09;;;;;;;143.97;72.35;;;;;;;2.48;72.01;93435.62;1523401;93;21208;-49
2022/03/30 02:54:37;;;;;;;129.35;61.65;;;;;;;2.47;71.90;93438.18;1519629;92;21575;-48
2022/03/30 02:57:04;;;;;;;140.15;70.03;;;;;;;2.50;71.90;93434.61;1530086;91;21066;-48
2022/03/30 02:59:32;;;;;;;140.05;72.30;;;;;;;2.52;71.75;93434.94;1522764;92;21278;-48
2022/03/30 03:02:00;;;;;;;161.82;77.53;;;;;;;2.56;71.79;93435.02;1523556;92;20996;-49
2022/03/30 03:04:29;;;;;;;174.12;84.75;;;;;;;2.66;71.79;93435.92;1523277;92;21526;-48
2022/03/30 03:06:57;;;;;;;170.05;83.82;;;;;;;2.76;71.59;93438.36;1522265;92;21101;-48
2022/03/30 03:09:25;;;;;;;131.60;63.25;;;;;;;2.85;71.36;93436.38;1505795;94;21022;-48
2022/03/30 03:11:52;;;;;;;121.47;60.85;;;;;;;2.90;71.00;93444.73;1526343;92;21593;-48
2022/03/30 03:14:20;;;;;;;125.33;56.50;;;;;;;2.79;70.90;93444.86;1522659;92;21623;-49
2022/03/30 03:16:48;;;;;;;129.82;63.17;;;;;;;2.72;70.94;93442.34;1532686;92;21045;-48
2022/03/30 03:19:17;;;;;;;107.87;54.25;;;;;;;2.67;70.89;93424.63;1524673;93;21062;-48
2022/03/30 03:21:44;;;;;;;130.67;61.92;;;;;;;2.64;70.81;93424.13;1523284;92;21021;-49
2022/03/30 03:24:11;;;;;;;124.80;59.70;;;;;;;2.56;70.88;93427.45;1521381;92;21155;-47
2022/03/30 03:26:40;;;;;;;114.08;58.92;;;;;;;2.53;71.16;93437.20;1522873;91;21089;-48
2022/03/30 03:29:07;;;;;;;138.57;74.65;;;;;;;2.48;71.35;93417.99;1523678;92;21097;-48
2022/03/30 03:31:36;;;;;;;139.55;73.85;;;;;;;2.48;71.69;93420.09;1521858;92;21135;-48
2022/03/30 03:34:04;;;;;;;129.93;65.92;;;;;;;2.55;71.98;93426.71;1521641;92;21010;-50
2022/03/30 03:36:31;;;;;;;131.37;71.05;;;;;;;2.67;71.59;93426.59;1522940;92;21194;-49
2022/03/30 03:38:59;;;;;;;175.10;99.03;;;;;;;2.65;71.25;93416.15;1523512;92;21122;-49
2022/03/30 03:41:26;;;;;;;154.87;86.22;;;;;;;2.62;71.54;93422.44;1522158;92;21098;-49
2022/03/30 03:43:54;;;;;;;136.50;72.75;;;;;;;2.68;71.68;93415.28;1521623;92;21142;-51
2022/03/30 03:46:21;;;;;;;125.70;66.67;;;;;;;2.74;71.37;93427.75;1522266;93;21014;-50
2022/03/30 03:48:50;;;;;;;128.68;67.00;;;;;;;2.75;71.35;93425.20;1522643;93;21207;-49
2022/03/30 03:51:18;;;;;;;129.40;65.75;;;;;;;2.74;71.46;93419.60;1522716;93;21065;-50
2022/03/30 03:53:47;;;;;;;118.17;58.48;;;;;;;2.75;71.39;93423.84;1520716;93;21172;-48
2022/03/30 03:56:14;;;;;;;115.30;56.88;;;;;;;2.72;71.43;93422.73;1504665;94;21197;-49
2022/03/30 03:58:42;;;;;;;93.60;50.15;;;;;;;2.65;71.38;93423.55;1526090;92;21122;-48
2022/03/30 04:01:09;;;;;;;118.82;59.20;;;;;;;2.59;71.53;93421.17;1523731;92;21327;-48
2022/03/30 04:03:36;;;;;;;128.38;59.98;;;;;;;2.50;71.49;93427.21;1521875;93;21684;-48
2022/03/30 04:06:04;;;;;;;135.60;64.55;;;;;;;2.43;71.71;93425.27;1522209;93;21250;-49
2022/03/30 04:08:32;;;;;;;116.42;57.73;;;;;;;2.41;72.02;93416.80;1523274;93;21929;-48
2022/03/30 04:11:00;;;;;;;127.07;55.30;;;;;;;2.48;72.17;93419.34;1524032;92;21109;-48
2022/03/30 04:13:27;;;;;;;117.60;55.33;;;;;;;2.52;72.01;93414.58;1522845;92;21174;-49
2022/03/30 04:15:54;;;;;;;119.85;62.85;;;;;;;2.51;71.93;93410.34;1521171;92;21153;-48
2022/03/30 04:18:23;;;;;;;149.18;73.75;;;;;;;2.51;71.90;93417.13;1523628;93;21187;-48
2022/03/30 04:20:51;;;;;;;245.27;125.18;;;;;;;2.57;71.99;93414.83;1521747;92;21163;-49
2022/03/30 04:23:18;;;;;;;153.10;72.17;;;;;;;2.59;71.87;93421.17;1525454;93;21130;-48
2022/03/30 04:25:46;;;;;;;122.07;62.95;;;;;;;2.63;71.73;93422.61;1524240;92;21183;-49
2022/03/30 04:28:17;;;;;;;149.65;71.12;;;;;;;2.56;71.55;93426.10;1521298;92;21220;-48
2022/03/30 04:30:45;;;;;;;135.55;67.05;;;;;;;2.47;71.73;93423.25;1519825;92;21744;-49
2022/03/30 04:33:12;;;;;;;131.60;68.12;;;;;;;2.44;71.76;93430.87;1521870;92;21145;-48
2022/03/30 04:35:39;;;;;;;223.13;121.22;;;;;;;2.41;71.91;93424.94;1524643;92;21122;-49
2022/03/30 04:38:07;;;;;;;199.62;107.32;;;;;;;2.40;72.06;93430.98;1522481;93;21182;-48
2022/03/30 04:40:34;;;;;;;201.88;113.85;;;;;;;2.41;72.21;93433.86;1522013;92;21729;-48
2022/03/30 04:43:03;;;;;;;202.82;115.12;;;;;;;2.47;72.42;93434.86;1523765;92;21630;-48
2022/03/30 04:45:30;;;;;;;160.78;88.00;;;;;;;2.57;72.38;93439.84;1522415;93;21239;-50
2022/03/30 04:47:59;;;;;;;194.40;102.25;;;;;;;2.69;72.48;93441.85;1525330;92;21199;-49
2022/03/30 04:50:27;;;;;;;200.07;103.15;;;;;;;2.79;72.11;93448.35;1505972;93;21310;-49
2022/03/30 04:52:56;;;;;;;232.98;115.22;;;;;;;2.84;71.97;93442.39;1522844;93;21197;-50
2022/03/30 04:55:23;;;;;;;261.32;123.35;;;;;;;2.86;71.69;93448.15;1520479;93;21666;-49
2022/03/30 04:57:52;;;;;;;216.75;107.80;;;;;;;2.84;71.40;93447.08;1521193;92;21205;-49
2022/03/30 05:00:19;;;;;;;199.70;96.22;;;;;;;2.78;71.39;93451.48;1524024;92;21621;-49
2022/03/30 05:02:47;;;;;;;207.52;101.65;;;;;;;2.75;71.42;93446.91;1524227;92;21200;-49
2022/03/30 05:05:15;;;;;;;256.95;121.87;;;;;;;2.73;71.71;93462.88;1538914;92;21025;-50
2022/03/30 05:07:42;;;;;;;259.67;126.92;;;;;;;2.76;71.65;93452.52;1538920;92;21434;-50
2022/03/30 05:10:12;;;;;;;187.60;95.60;;;;;;;2.82;71.73;93460.29;1538830;92;21022;-49
2022/03/30 05:12:40;;;;;;;159.70;85.28;;;;;;;2.87;71.63;93464.61;1529972;92;21031;-51
2022/03/30 05:15:10;;;;;;;135.63;74.47;;;;;;;2.92;71.68;93473.61;1526397;92;21185;-51
2022/03/30 05:17:38;;;;;;;139.30;76.20;;;;;;;2.96;71.34;93470.20;1527568;92;21594;-51
2022/03/30 05:20:09;;;;;;;127.17;68.10;;;;;;;2.97;71.65;93487.23;1523852;92;21235;-51
2022/03/30 05:22:36;;;;;;;116.28;68.00;;;;;;;3.08;71.50;93475.50;1510244;93;21115;-54
2022/03/30 05:25:06;;;;;;;120.57;64.12;;;;;;;3.16;71.65;93470.02;1518950;92;21152;-51
2022/03/30 05:27:35;;;;;;;122.40;65.92;;;;;;;3.30;71.61;93469.63;1521799;92;21169;-51
2022/03/30 05:30:02;;;;;;;121.35;66.10;;;;;;;3.42;71.15;93457.41;1524358;93;22486;-51
2022/03/30 05:32:30;;;;;;;127.82;74.72;;;;;;;3.49;71.00;93470.81;1523921;92;21031;-51
2022/03/30 05:34:58;;;;;;;151.18;85.15;;;;;;;3.56;70.82;93464.58;1523593;92;21127;-50
2022/03/30 05:37:26;;;;;;;136.72;83.07;;;;;;;3.62;70.56;93464.78;1513175;93;21114;-51
2022/03/30 05:39:53;;;;;;;137.47;80.90;;;;;;;3.70;70.45;93472.29;1521712;92;22547;-50
2022/03/30 05:42:22;;;;;;;137.47;79.00;;;;;;;3.84;70.41;93456.16;1524395;92;21685;-49
2022/03/30 05:44:51;;;;;;;123.87;71.50;;;;;;;4.00;70.25;93466.32;1554426;91;21183;-49
2022/03/30 05:47:18;;;;;;;150.45;84.10;;;;;;;4.13;69.58;93457.56;1525438;93;21539;-51
2022/03/30 05:49:46;;;;;;;163.35;87.08;;;;;;;4.21;69.56;93454.77;1532824;93;21179;-54
2022/03/30 05:52:13;;;;;;;148.35;83.15;;;;;;;4.28;69.23;93444.99;1536380;92;21192;-49
2022/03/30 05:54:40;;;;;;;179.68;98.72;;;;;;;4.36;69.24;93444.94;1527632;91;21196;-50
2022/03/30 05:57:08;;;;;;;158.07;85.60;;;;;;;4.44;69.29;93432.60;1524391;93;21559;-49
2022/03/30 05:59:40;;;;;;;140.62;78.47;;;;;;;4.61;69.09;93433.97;1530460;91;21144;-50
2022/03/30 06:02:10;;;;;;;148.20;82.10;;;;;;;4.70;68.54;93431.34;1546088;91;21072;-51
2022/03/30 06:04:38;;;;;;;162.92;92.85;;;;;;;4.61;68.26;93429.89;1555684;91;21191;-49
2022/03/30 06:07:07;;;;;;;140.88;85.92;;;;;;;4.52;68.42;93431.19;1548543;91;21057;-51
2022/03/30 06:09:34;;;;;;;136.88;78.15;;;;;;;4.50;68.27;93434.95;1545851;91;21028;-51
2022/03/30 06:12:03;;;;;;;136.30;83.52;;;;;;;4.43;68.65;93425.64;1546648;91;21128;-52
2022/03/30 06:14:33;;;;;;;171.65;95.20;;;;;;;4.45;68.77;93431.41;1517068;91;21021;-51
2022/03/30 06:17:00;;;;;;;181.28;102.07;;;;;;;4.56;68.93;93429.09;1542664;91;21249;-52
2022/03/30 06:19:29;;;;;;;163.43;96.20;;;;;;;4.64;68.59;93415.38;1524164;92;21535;-52
2022/03/30 06:21:58;;;;;;;170.40;98.47;;;;;;;4.74;68.52;93423.80;1523148;92;21096;-52
2022/03/30 06:24:25;;;;;;;157.70;94.90;;;;;;;4.80;68.52;93426.11;1521390;92;21574;-52
2022/03/30 06:26:53;;;;;;;160.48;90.65;;;;;;;4.90;68.46;93426.36;1535324;92;21012;-52
2022/03/30 06:29:20;;;;;;;137.32;80.60;;;;;;;4.98;68.28;93418.08;1524085;92;21167;-52
2022/03/30 06:31:49;;;;;;;144.02;82.53;;;;;;;5.08;68.35;93415.59;1518191;91;21691;-53
2022/03/30 06:34:17;;;;;;;121.35;72.95;;;;;;;5.18;68.21;93415.79;1535480;91;21072;-52
2022/03/30 06:36:45;;;;;;;105.45;60.30;;;;;;;5.31;67.92;93417.84;1531485;91;21297;-53
2022/03/30 06:39:13;;;;;;;93.17;57.23;;;;;;;5.42;67.48;93419.59;1545519;90;21379;-52
2022/03/30 06:41:40;;;;;;;85.40;48.78;;;;;;;5.51;67.10;93414.95;1538116;91;21173;-53
2022/03/30 06:44:10;;;;;;;78.37;48.23;;;;;;;5.65;66.71;93417.73;1531132;92;21248;-51
2022/03/30 06:46:38;;;;;;;82.90;47.58;;;;;;;5.81;66.44;93416.17;1525184;91;21178;-52
2022/03/30 06:49:07;;;;;;;66.87;40.60;;;;;;;6.02;65.83;93415.34;1527192;91;21171;-52
2022/03/30 06:51:34;;;;;;;67.60;39.92;;;;;;;6.21;65.44;93420.41;1511411;92;21117;-51
2022/03/30 06:54:02;;;;;;;73.20;43.13;;;;;;;6.39;64.78;93416.95;1535508;90;21194;-53
2022/03/30 06:56:31;;;;;;;66.70;40.28;;;;;;;6.59;64.25;93417.28;1530648;91;20996;-53
2022/03/30 06:58:59;;;;;;;75.15;43.13;;;;;;;6.79;63.91;93417.02;1513767;92;21199;-51
2022/03/30 07:01:28;;;;;;;69.03;39.08;;;;;;;7.01;63.33;93414.11;1528898;91;21050;-53
2022/03/30 07:03:56;;;;;;;72.80;43.15;;;;;;;7.17;62.71;93417.31;1521134;92;22357;-51
2022/03/30 07:06:23;;;;;;;90.47;50.38;;;;;;;7.28;62.33;93410.15;1523048;92;21366;-52
2022/03/30 07:11:38;;;;;;;92.75;48.58;;;;;;;7.73;61.56;93419.62;1515425;91;21126;-51
2022/03/30 07:14:06;;;;;;;102.40;51.77;;;;;;;7.95;60.68;93424.28;1525342;91;21206;-52
2022/03/30 07:16:35;;;;;;;105.27;47.78;;;;;;;7.97;60.17;93417.73;1525628;91;21072;-52
2022/03/30 07:19:04;;;;;;;84.77;45.12;;;;;;;7.98;59.85;93420.62;1529813;91;22812;-51
2022/03/30 07:21:32;;;;;;;106.97;61.88;;;;;;;8.02;59.70;93422.57;1520467;91;21122;-52
2022/03/30 07:24:00;;;;;;;107.35;58.10;;;;;;;8.05;59.86;93424.38;1515696;92;21176;-52
2022/03/30 07:26:28;;;;;;;93.05;58.28;;;;;;;8.11;60.15;93422.52;1513547;91;21069;-52
2022/03/30 07:28:55;;;;;;;94.35;56.13;;;;;;;8.22;59.90;93418.70;1524884;91;21080;-52
2022/03/30 07:31:23;;;;;;;78.33;48.73;;;;;;;8.36;59.86;93426.25;1526986;91;21560;-51
2022/03/30 07:33:51;;;;;;;82.05;49.58;;;;;;;8.53;59.54;93417.02;1530577;91;21064;-55
2022/03/30 07:36:21;;;;;;;76.45;48.10;;;;;;;8.61;59.19;93416.20;1527844;91;21122;-52
2022/03/30 07:38:48;;;;;;;76.53;46.53;;;;;;;8.65;58.86;93409.93;1517879;91;21200;-54
2022/03/30 07:41:17;;;;;;;78.30;46.83;;;;;;;8.76;58.70;93415.66;1530055;90;21136;-54
2022/03/30 07:43:45;;;;;;;77.20;50.83;;;;;;;8.90;58.38;93416.33;1538357;90;21170;-52
2022/03/30 07:46:13;;;;;;;100.47;61.60;;;;;;;9.02;57.89;93417.45;1516535;92;21022;-52
2022/03/30 07:48:45;;;;;;;94.87;54.18;;;;;;;9.13;57.63;93419.05;1538595;91;21063;-53
2022/03/30 07:51:12;;;;;;;84.10;54.65;;;;;;;9.25;57.47;93418.64;1521302;91;21085;-52
2022/03/30 07:53:41;;;;;;;85.17;53.35;;;;;;;9.35;57.25;93415.95;1524248;91;21032;-56
2022/03/30 07:56:09;;;;;;;85.32;49.77;;;;;;;9.43;57.21;93412.99;1508326;92;21913;-54
2022/03/30 07:58:37;;;;;;;88.47;50.03;;;;;;;9.48;57.02;93417.22;1522740;92;21112;-53
2022/03/30 08:01:04;;;;;;;87.17;54.85;;;;;;;9.55;56.88;93413.31;1518719;92;21101;-52
2022/03/30 08:03:32;;;;;;;91.25;52.95;;;;;;;9.65;56.53;93407.89;1526424;91;21532;-54
2022/03/30 08:06:00;;;;;;;91.08;51.08;;;;;;;9.75;56.10;93412.05;1519339;91;21048;-53
2022/03/30 08:08:28;;;;;;;79.32;49.73;;;;;;;9.77;55.41;93415.09;1521023;92;22366;-53
2022/03/30 08:10:56;;;;;;;90.87;48.95;;;;;;;9.72;55.22;93408.87;1524445;91;21568;-53
2022/03/30 08:13:23;;;;;;;79.67;47.65;;;;;;;9.71;55.18;93405.38;1539479;91;21606;-53
2022/03/30 08:15:50;;;;;;;84.00;51.60;;;;;;;9.79;55.07;93401.65;1525800;90;21184;-53
2022/03/30 08:18:24;;;;;;;85.60;48.80;;;;;;;9.93;55.24;93410.47;1536902;90;21226;-54
2022/03/30 08:23:37;;;;;;;80.53;49.38;;;;;;;10.26;54.42;93394.54;1524577;91;21129;-53
2022/03/30 08:26:04;;;;;;;93.27;54.53;;;;;;;10.44;54.61;93397.05;1529644;90;21405;-55
2022/03/30 08:28:32;;;;;;;89.97;54.33;;;;;;;10.63;53.87;93394.97;1509318;91;21247;-54
2022/03/30 08:31:01;;;;;;;88.40;51.90;;;;;;;10.81;53.77;93393.33;1531285;92;21631;-53
2022/03/30 08:33:28;;;;;;;70.45;45.20;;;;;;;11.00;53.58;93395.31;1530293;91;21202;-53
2022/03/30 08:35:56;;;;;;;78.07;48.08;;;;;;;11.17;53.11;93391.39;1530657;90;21671;-53
2022/03/30 08:38:27;;;;;;;76.67;50.45;;;;;;;11.33;52.84;93382.57;1529320;91;22430;-54
2022/03/30 08:40:57;;;;;;;79.75;49.40;;;;;;;11.55;52.47;93383.53;1517861;92;21087;-53
2022/03/30 08:43:29;;;;;;;83.65;50.38;;;;;;;11.79;51.92;93380.54;1521096;92;21693;-53
2022/03/30 08:45:59;;;;;;;70.17;42.70;;;;;;;12.00;51.41;93379.22;1525146;91;21126;-53
2022/03/30 08:48:26;;;;;;;59.08;38.08;;;;;;;12.24;50.20;93379.67;1518826;92;21451;-54
2022/03/30 08:50:55;;;;;;;61.77;38.48;;;;;;;12.38;49.17;93378.75;1523484;92;21124;-52
2022/03/30 08:53:23;;;;;;;65.22;41.00;;;;;;;12.47;49.09;93373.80;1511690;92;21279;-52
2022/03/30 08:55:51;;;;;;;70.97;43.80;;;;;;;12.62;49.25;93366.89;1522370;91;21160;-52
2022/03/30 08:58:18;;;;;;;69.92;44.38;;;;;;;12.81;49.50;93361.09;1518959;91;21174;-54
2022/03/30 09:00:46;;;;;;;62.62;38.70;;;;;;;13.01;49.20;93366.48;1528569;90;21053;-54
2022/03/30 09:03:15;;;;;;;57.05;35.88;;;;;;;13.13;48.38;93359.00;1531870;91;21112;-55
2022/03/30 09:05:42;;;;;;;60.03;38.58;;;;;;;13.25;48.43;93350.89;1544111;90;21071;-53
2022/03/30 09:08:20;;;;;;;57.10;36.13;;;;;;;13.38;48.14;93343.64;1535163;89;21898;-56
2022/03/30 09:10:51;;;;;;;53.02;31.97;;;;;;;13.55;48.34;93335.38;1534956;90;21041;-51
2022/03/30 09:13:19;;;;;;;50.05;29.18;;;;;;;13.80;47.95;93330.27;1519481;92;21655;-53
2022/03/30 09:15:51;;;;;;;49.88;31.97;;;;;;;14.02;47.59;93328.89;1526262;92;21164;-53
2022/03/30 09:18:19;;;;;;;41.50;29.00;;;;;;;14.22;47.46;93318.34;1528906;92;21106;-53
2022/03/30 09:20:51;;;;;;;44.08;29.82;;;;;;;14.45;46.66;93316.42;1520954;91;21840;-52
2022/03/30 09:23:20;;;;;;;49.53;30.40;;;;;;;14.69;46.37;93316.64;1522923;92;21801;-53
2022/03/30 09:25:50;;;;;;;40.30;25.43;;;;;;;14.95;46.03;93312.89;1512918;92;21107;-52
2022/03/30 09:28:21;;;;;;;37.83;24.10;;;;;;;15.20;45.25;93304.09;1507160;92;21067;-51
2022/03/30 09:30:50;;;;;;;43.90;27.55;;;;;;;15.45;43.73;93302.36;1528791;90;21399;-53
2022/03/30 09:33:20;;;;;;;38.23;24.40;;;;;;;15.64;43.45;93299.09;1525649;91;21053;-53
2022/03/30 09:35:50;;;;;;;37.93;21.80;;;;;;;15.94;42.35;93290.80;1524485;91;21104;-53
2022/03/30 09:38:20;;;;;;;39.45;22.17;;;;;;;16.35;40.82;93301.95;1523190;92;21166;-52
2022/03/30 09:40:56;;;;;;;44.75;25.50;;;;;;;16.68;40.66;93290.50;1515887;92;21482;-54
2022/03/30 09:43:27;;;;;;;33.73;18.82;;;;;;;17.09;39.39;93288.28;1511023;92;21151;-54
2022/03/30 09:46:08;;;;;;;31.07;20.02;;;;;;;17.56;38.37;93287.42;1520002;92;21823;-54
2022/03/30 09:48:44;;;;;;;27.77;19.75;;;;;;;18.04;37.98;93278.84;1502594;92;21136;-55
2022/03/30 09:51:10;;;;;;;25.55;17.20;;;;;;;18.50;36.70;93274.92;1519308;92;21106;-53
2022/03/30 09:53:39;;;;;;;28.20;18.73;;;;;;;18.79;35.45;93278.73;1509956;92;21138;-53
2022/03/30 09:56:08;;;;;;;33.78;19.35;;;;;;;19.03;34.60;93265.30;1523503;92;21151;-52
2022/03/30 09:58:38;;;;;;;33.65;19.10;;;;;;;19.31;33.67;93266.16;1513215;92;21180;-54
2022/03/30 10:01:19;;;;;;;25.15;17.30;;;;;;;19.62;33.12;93270.20;1528822;90;21230;-54
2022/03/30 10:04:01;;;;;;;37.57;20.27;;;;;;;19.75;32.32;93261.76;1522426;92;21151;-52
2022/03/30 10:06:32;;;;;;;30.40;18.10;;;;;;;19.68;32.50;93265.23;1527083;91;21070;-54
2022/03/30 10:09:01;;;;;;;29.92;19.35;;;;;;;19.93;32.15;93267.81;1512232;93;21183;-53
2022/03/30 10:11:29;;;;;;;28.90;20.52;;;;;;;20.18;31.65;93262.06;1513817;92;21286;-54
2022/03/30 10:14:00;;;;;;;22.90;16.93;;;;;;;20.56;30.58;93260.34;1515197;92;21331;-51
2022/03/30 10:16:29;;;;;;;35.45;14.60;;;;;;;20.84;29.38;93262.53;1526263;92;21190;-51
2022/03/30 10:18:56;;;;;;;30.30;15.00;;;;;;;20.98;26.09;93265.97;1517248;92;20984;-55
2022/03/30 10:21:39;;;;;;;28.47;12.82;;;;;;;20.97;25.46;93258.88;1521460;92;21065;-54
2022/03/30 10:24:44;;;;;;;29.52;14.15;;;;;;;20.91;24.04;93256.89;1530296;92;21097;-54
2022/03/30 10:27:32;;;;;;;27.62;12.33;;;;;;;20.86;23.97;93268.95;1519940;92;21876;-54
2022/03/30 10:30:06;;;;;;;28.87;15.05;;;;;;;20.84;22.77;93271.55;1523048;91;21653;-53
2022/03/30 10:32:36;;;;;;;32.17;13.90;;;;;;;20.90;23.92;93271.51;1511036;92;21128;-54
2022/03/30 10:35:12;;;;;;;28.85;12.78;;;;;;;20.91;22.88;93284.85;1528061;91;21200;-54
2022/03/30 10:37:45;;;;;;;27.90;12.45;;;;;;;20.84;23.88;93270.16;1513353;92;21118;-55
2022/03/30 10:40:23;;;;;;;22.67;11.88;;;;;;;21.04;23.53;93277.74;1510916;93;21163;-52
2022/03/30 10:43:02;;;;;;;21.05;13.58;;;;;;;21.36;22.51;93273.92;1520560;93;21120;-52
2022/03/30 10:45:43;;;;;;;21.42;11.63;;;;;;;21.47;22.81;93269.42;1525650;91;21645;-54
2022/03/30 10:48:20;;;;;;;18.45;11.50;;;;;;;21.71;22.40;93273.17;1521624;92;21137;-54
2022/03/30 10:51:03;;;;;;;33.00;13.60;;;;;;;21.96;22.45;93263.74;1528515;92;21106;-56
2022/03/30 10:53:42;;;;;;;21.60;11.68;;;;;;;22.23;22.37;93281.08;1514643;91;21173;-54
2022/03/30 10:56:24;;;;;;;18.62;13.43;;;;;;;22.58;22.22;93278.81;1519603;92;21572;-55
2022/03/30 10:58:56;;;;;;;39.88;12.05;;;;;;;22.67;22.22;93271.91;1520449;92;22033;-56
2022/03/30 11:01:29;;;;;;;19.00;12.47;;;;;;;22.89;22.13;93265.54;1518727;92;21201;-54
2022/03/30 11:04:04;;;;;;;21.33;12.93;;;;;;;23.13;21.49;93271.34;1519846;92;21019;-54
2022/03/30 11:06:35;;;;;;;26.17;11.93;;;;;;;23.26;21.99;93257.10;1514745;93;21267;-56
2022/03/30 11:09:05;;;;;;;21.75;12.50;;;;;;;23.51;21.73;93259.36;1519713;93;21538;-54
2022/03/30 11:11:39;;;;;;;22.17;12.58;;;;;;;23.62;21.05;93268.02;1523042;92;21110;-54
2022/03/30 11:14:47;;;;;;;24.05;11.88;;;;;;;23.58;21.04;93264.19;1522706;91;21119;-54
2022/03/30 11:17:16;;;;;;;25.35;13.40;;;;;;;23.15;21.52;93265.91;1552465;89;21229;-54
2022/03/30 11:19:54;;;;;;;21.37;12.90;;;;;;;22.33;22.35;93270.80;1570203;88;21147;-54
2022/03/30 11:22:29;;;;;;;17.82;12.50;;;;;;;22.06;22.69;93285.05;1568675;91;20997;-55
2022/03/30 11:25:22;;;;;;;24.82;13.03;;;;;;;21.94;23.05;93271.20;1561192;89;21096;-52
2022/03/30 11:28:08;;;;;;;22.65;14.68;;;;;;;21.98;23.29;93272.34;1552009;90;21143;-52
2022/03/30 11:30:39;;;;;;;24.12;13.15;;;;;;;22.18;22.81;93261.64;1553605;90;21211;-54
2022/03/30 11:33:26;;;;;;;24.52;13.58;;;;;;;22.30;22.29;93257.19;1558039;90;22159;-54
2022/03/30 11:35:54;;;;;;;19.27;12.15;;;;;;;22.55;22.33;93270.77;1512574;92;21131;-53